createdAt,value
2017-08-16T00:00:13.968Z,9.30
2017-08-16T00:02:42.045Z,10.30
2017-08-16T00:05:10.118Z,8.70
2017-08-16T00:07:38.982Z,9.47
2017-08-16T00:10:07.380Z,9.93
2017-08-16T00:12:35.466Z,9.80
2017-08-16T00:15:03.578Z,8.90
2017-08-16T00:17:31.714Z,9.93
2017-08-16T00:19:59.803Z,10.70
2017-08-16T00:22:28.499Z,10.40
2017-08-16T00:24:56.616Z,9.63
2017-08-16T00:27:24.768Z,11.53
2017-08-16T00:29:52.876Z,10.73
2017-08-16T00:32:21.736Z,10.60
2017-08-16T00:34:49.820Z,10.90
2017-08-16T00:37:17.911Z,13.10
2017-08-16T00:39:45.983Z,10.43
2017-08-16T00:42:14.071Z,11.30
2017-08-16T00:44:42.921Z,11.40
2017-08-16T00:47:11.009Z,11.80
2017-08-16T00:49:39.086Z,12.30
2017-08-16T00:52:07.163Z,13.37
2017-08-16T00:54:36.030Z,12.83
2017-08-16T00:57:04.123Z,12.90
2017-08-16T00:59:32.194Z,12.53
2017-08-16T01:02:00.282Z,12.87
2017-08-16T01:04:29.130Z,12.90
2017-08-16T01:06:57.242Z,12.93
2017-08-16T01:09:25.328Z,11.87
2017-08-16T01:11:54.192Z,13.20
2017-08-16T01:14:22.271Z,13.80
2017-08-16T01:16:50.356Z,12.87
2017-08-16T01:19:19.199Z,14.03
2017-08-16T01:21:47.295Z,12.77
2017-08-16T01:24:15.379Z,12.50
2017-08-16T01:26:43.471Z,12.63
2017-08-16T01:29:11.564Z,13.53
2017-08-16T01:31:39.639Z,13.20
2017-08-16T01:34:07.714Z,15.47
2017-08-16T01:36:35.827Z,14.77
2017-08-16T01:39:03.928Z,14.60
2017-08-16T01:41:32.007Z,15.93
2017-08-16T01:44:00.898Z,14.93
2017-08-16T01:46:29.759Z,14.90
2017-08-16T01:48:57.859Z,13.97
2017-08-16T01:51:26.692Z,14.47
2017-08-16T01:53:54.791Z,13.57
2017-08-16T01:56:22.873Z,12.03
2017-08-16T01:58:50.963Z,14.20
2017-08-16T02:01:19.043Z,13.80
2017-08-16T02:03:47.898Z,13.83
2017-08-16T02:06:16.000Z,13.43
2017-08-16T02:08:44.070Z,15.27
2017-08-16T02:11:12.237Z,14.97
2017-08-16T02:13:41.101Z,15.77
2017-08-16T02:16:09.275Z,16.03
2017-08-16T02:18:37.347Z,15.80
2017-08-16T02:21:05.431Z,16.57
2017-08-16T02:23:33.511Z,15.23
2017-08-16T02:26:01.607Z,17.20
2017-08-16T02:28:30.467Z,16.57
2017-08-16T02:30:58.550Z,16.40
2017-08-16T02:33:26.639Z,16.80
2017-08-16T02:35:54.711Z,16.80
2017-08-16T02:38:22.811Z,17.30
2017-08-16T02:40:50.904Z,17.13
2017-08-16T02:43:18.988Z,15.63
2017-08-16T02:45:47.053Z,16.30
2017-08-16T02:48:15.136Z,14.50
2017-08-16T02:50:43.210Z,15.80
2017-08-16T02:53:11.298Z,12.20
2017-08-16T02:55:39.381Z,11.53
2017-08-16T02:58:07.575Z,11.87
2017-08-16T03:00:36.411Z,10.63
2017-08-16T03:03:04.491Z,10.33
2017-08-16T03:05:32.572Z,9.80
2017-08-16T03:08:00.647Z,9.67
2017-08-16T03:10:28.714Z,9.50
2017-08-16T03:12:56.790Z,10.70
2017-08-16T03:15:24.858Z,9.30
2017-08-16T03:17:52.955Z,9.47
2017-08-16T03:20:21.028Z,9.77
2017-08-16T03:22:49.108Z,9.80
2017-08-16T03:25:17.199Z,9.30
2017-08-16T03:27:45.271Z,9.47
2017-08-16T03:30:25.432Z,9.30
2017-08-16T03:32:53.507Z,9.00
2017-08-16T03:35:21.588Z,9.60
2017-08-16T03:37:49.663Z,8.40
2017-08-16T03:40:17.760Z,9.33
2017-08-16T03:42:45.830Z,8.23
2017-08-16T03:45:13.907Z,9.50
2017-08-16T03:47:41.994Z,8.50
2017-08-16T03:50:10.074Z,8.60
2017-08-16T03:52:38.240Z,8.60
2017-08-16T03:55:06.311Z,8.97
2017-08-16T03:57:34.387Z,8.97
2017-08-16T04:00:02.455Z,8.70
2017-08-16T04:02:30.551Z,9.00
2017-08-16T04:04:59.391Z,8.17
2017-08-16T04:07:27.486Z,8.73
2017-08-16T04:09:55.580Z,8.43
2017-08-16T04:12:23.669Z,11.63
2017-08-16T04:14:51.755Z,11.37
2017-08-16T04:17:19.837Z,9.60
2017-08-16T04:19:47.913Z,9.00
2017-08-16T04:22:16.768Z,9.53
2017-08-16T04:24:44.838Z,10.80
2017-08-16T04:27:12.906Z,9.53
2017-08-16T04:29:40.996Z,10.00
2017-08-16T04:32:09.839Z,9.20
2017-08-16T04:34:37.936Z,10.50
2017-08-16T04:37:05.995Z,9.00
2017-08-16T04:39:34.078Z,9.70
2017-08-16T04:42:02.157Z,10.50
2017-08-16T04:44:30.226Z,10.53
2017-08-16T04:46:58.436Z,11.60
2017-08-16T04:49:27.283Z,11.40
2017-08-16T04:51:55.381Z,12.67
2017-08-16T04:54:24.236Z,12.63
2017-08-16T04:56:52.340Z,11.50
2017-08-16T04:59:21.211Z,13.00
2017-08-16T05:01:49.282Z,13.70
2017-08-16T05:04:17.352Z,14.30
2017-08-16T05:06:45.435Z,11.83
2017-08-16T05:09:13.507Z,12.17
2017-08-16T05:11:41.583Z,14.00
2017-08-16T05:14:09.650Z,14.50
2017-08-16T05:16:37.885Z,14.80
2017-08-16T05:19:05.966Z,12.97
2017-08-16T05:21:34.087Z,13.40
2017-08-16T05:24:02.152Z,12.93
2017-08-16T05:26:30.231Z,13.37
2017-08-16T05:28:58.302Z,14.43
2017-08-16T05:31:26.384Z,15.10
2017-08-16T05:33:55.233Z,15.70
2017-08-16T05:36:23.310Z,13.97
2017-08-16T05:38:51.402Z,14.90
2017-08-16T05:41:19.470Z,13.80
2017-08-16T05:43:47.583Z,13.97
2017-08-16T05:46:15.680Z,14.90
2017-08-16T05:48:43.766Z,14.70
2017-08-16T05:51:11.831Z,14.43
2017-08-16T05:53:39.923Z,14.60
2017-08-16T05:56:08.156Z,14.00
2017-08-16T05:58:36.240Z,15.30
2017-08-16T06:01:04.320Z,13.97
2017-08-16T06:03:32.406Z,14.00
2017-08-16T06:06:00.492Z,14.70
2017-08-16T06:08:28.587Z,13.97
2017-08-16T06:10:57.426Z,14.90
2017-08-16T06:13:25.515Z,11.77
2017-08-16T06:15:53.598Z,12.60
2017-08-16T06:18:21.667Z,13.20
2017-08-16T06:20:49.804Z,14.37
2017-08-16T06:23:17.875Z,14.03
2017-08-16T06:25:45.966Z,14.23
2017-08-16T06:28:14.040Z,13.00
2017-08-16T06:30:42.114Z,12.83
2017-08-16T06:33:10.187Z,11.27
2017-08-16T06:35:38.254Z,10.00
2017-08-16T06:38:06.323Z,11.73
2017-08-16T06:40:34.449Z,11.93
2017-08-16T06:43:02.531Z,11.80
2017-08-16T06:45:30.626Z,10.17
2017-08-16T06:47:58.710Z,11.70
2017-08-16T06:50:26.795Z,10.23
2017-08-16T06:52:54.870Z,11.20
2017-08-16T06:55:22.968Z,11.60
2017-08-16T06:57:51.056Z,10.83
2017-08-16T07:00:19.152Z,12.00
2017-08-16T07:02:47.239Z,11.40
2017-08-16T07:05:15.469Z,10.57
2017-08-16T07:07:43.570Z,10.73
2017-08-16T07:10:11.696Z,10.57
2017-08-16T07:12:39.800Z,10.53
2017-08-16T07:15:07.931Z,10.33
2017-08-16T07:17:36.052Z,11.57
2017-08-16T07:20:04.144Z,10.37
2017-08-16T07:22:32.263Z,10.43
2017-08-16T07:25:00.364Z,11.87
2017-08-16T07:27:28.455Z,8.10
2017-08-16T07:29:56.527Z,9.03
2017-08-16T07:32:25.371Z,8.07
2017-08-16T07:34:53.442Z,7.47
2017-08-16T07:37:21.523Z,7.13
2017-08-16T07:39:49.590Z,7.93
2017-08-16T07:42:17.658Z,7.50
2017-08-16T07:44:45.729Z,7.87
2017-08-16T07:47:13.820Z,7.90
2017-08-16T07:49:41.891Z,8.07
2017-08-16T07:52:09.977Z,7.40
2017-08-16T07:54:38.066Z,7.87
2017-08-16T07:57:06.150Z,6.93
2017-08-16T07:59:34.999Z,7.60
2017-08-16T08:02:03.103Z,7.63
2017-08-16T08:04:31.962Z,7.60
2017-08-16T08:07:00.018Z,7.40
2017-08-16T08:09:28.096Z,7.50
2017-08-16T08:11:56.164Z,6.97
2017-08-16T08:14:24.234Z,6.67
2017-08-16T08:16:52.312Z,6.80
2017-08-16T08:19:20.383Z,5.97
2017-08-16T08:21:48.456Z,7.80
2017-08-16T08:24:16.518Z,7.40
2017-08-16T08:26:44.603Z,7.70
2017-08-16T08:29:12.670Z,7.33
2017-08-16T08:31:40.743Z,7.60
2017-08-16T08:34:08.806Z,7.27
2017-08-16T08:36:36.887Z,6.60
2017-08-16T08:39:04.952Z,7.00
2017-08-16T08:41:33.031Z,6.40
2017-08-16T08:44:01.112Z,6.43
2017-08-16T08:46:29.174Z,6.07
2017-08-16T08:48:57.279Z,6.70
2017-08-16T08:51:25.335Z,5.43
2017-08-16T08:53:53.452Z,6.43
2017-08-16T09:12:53.907Z,7.80
2017-08-16T09:15:21.979Z,7.83
2017-08-16T09:17:50.054Z,7.80
2017-08-16T09:20:18.148Z,7.00
2017-08-16T09:22:46.227Z,6.80
2017-08-16T09:25:14.295Z,7.17
2017-08-16T09:27:42.354Z,6.90
2017-08-16T09:30:10.435Z,7.70
2017-08-16T09:32:38.553Z,7.13
2017-08-16T09:35:07.399Z,6.63
2017-08-16T09:37:35.481Z,5.40
2017-08-16T09:40:03.542Z,5.93
2017-08-16T09:42:31.622Z,5.80
2017-08-16T09:44:59.691Z,5.90
2017-08-16T09:47:27.763Z,5.60
2017-08-16T09:49:55.890Z,5.33
2017-08-16T09:52:23.959Z,5.60
2017-08-16T09:54:52.025Z,5.20
2017-08-16T09:57:20.095Z,4.70
2017-08-16T09:59:48.919Z,5.30
2017-08-16T10:02:17.025Z,5.60
2017-08-16T10:04:45.108Z,6.27
2017-08-16T10:07:13.176Z,6.47
2017-08-16T10:09:41.251Z,5.10
2017-08-16T10:12:09.322Z,5.00
2017-08-16T10:14:37.411Z,5.20
2017-08-16T10:17:05.466Z,5.00
2017-08-16T10:19:33.553Z,4.20
2017-08-16T10:22:01.611Z,3.90
2017-08-16T10:24:29.680Z,3.20
2017-08-16T10:26:57.750Z,3.63
2017-08-16T10:29:25.822Z,4.43
2017-08-16T10:31:53.887Z,5.57
2017-08-16T10:34:21.960Z,4.53
2017-08-16T10:36:50.084Z,5.07
2017-08-16T10:39:18.171Z,4.83
2017-08-16T10:41:46.231Z,4.73
2017-08-16T10:44:14.297Z,4.90
2017-08-16T10:46:42.367Z,4.57
2017-08-16T10:51:45.036Z,5.87
2017-08-16T10:54:13.106Z,4.93
2017-08-16T10:56:41.179Z,4.83
2017-08-16T10:59:09.271Z,5.17
2017-08-16T11:01:38.164Z,4.87
2017-08-16T11:04:07.047Z,4.80
2017-08-16T11:06:35.115Z,4.63
2017-08-16T11:09:03.186Z,5.33
2017-08-16T11:11:31.256Z,4.67
2017-08-16T11:13:59.327Z,5.83
2017-08-16T11:16:27.403Z,4.93
2017-08-16T11:18:55.476Z,5.00
2017-08-16T11:21:23.537Z,5.50
2017-08-16T11:23:51.624Z,5.13
2017-08-16T11:26:19.682Z,4.60
2017-08-16T11:28:47.754Z,4.90
2017-08-16T11:31:15.827Z,4.10
2017-08-16T11:33:43.899Z,4.77
2017-08-16T11:36:11.990Z,3.60
2017-08-16T11:38:40.056Z,4.00
2017-08-16T11:41:08.894Z,4.50
2017-08-16T11:43:36.965Z,4.23
2017-08-16T11:46:05.038Z,4.40
2017-08-16T11:48:33.151Z,3.77
2017-08-16T11:51:01.224Z,4.20
2017-08-16T11:53:29.335Z,3.97
2017-08-16T11:55:57.403Z,3.43
2017-08-16T11:58:25.472Z,4.27
2017-08-16T12:00:54.331Z,3.70
2017-08-16T12:03:22.404Z,3.43
2017-08-16T12:05:50.488Z,3.90
2017-08-16T12:08:18.546Z,3.30
2017-08-16T12:10:46.624Z,3.80
2017-08-16T12:13:14.716Z,3.23
2017-08-16T12:15:43.567Z,3.77
2017-08-16T12:18:11.638Z,2.97
2017-08-16T12:20:39.710Z,3.33
2017-08-16T12:23:07.805Z,3.33
2017-08-16T12:25:35.867Z,3.00
2017-08-16T12:28:03.948Z,3.50
2017-08-16T12:30:32.019Z,3.17
2017-08-16T12:33:00.099Z,3.23
2017-08-16T12:35:28.176Z,3.30
2017-08-16T12:37:56.247Z,3.07
2017-08-16T12:40:24.319Z,2.80
2017-08-16T12:42:52.385Z,2.77
2017-08-16T12:45:20.452Z,3.00
2017-08-16T12:47:48.536Z,3.10
2017-08-16T12:50:16.635Z,2.73
2017-08-16T12:52:44.730Z,3.20
2017-08-16T12:55:14.199Z,2.70
2017-08-16T12:57:42.276Z,3.27
2017-08-16T13:00:10.371Z,2.90
2017-08-16T13:02:38.435Z,2.97
2017-08-16T13:05:07.479Z,3.13
2017-08-16T13:07:35.544Z,2.77
2017-08-16T13:10:03.619Z,3.07
2017-08-16T13:12:31.687Z,3.07
2017-08-16T13:14:59.758Z,3.07
2017-08-16T13:17:27.832Z,2.83
2017-08-16T13:19:55.912Z,3.27
2017-08-16T13:22:23.975Z,3.23
2017-08-16T13:24:52.057Z,3.00
2017-08-16T13:27:20.137Z,3.27
2017-08-16T13:29:48.212Z,2.87
2017-08-16T13:32:16.284Z,3.43
2017-08-16T13:34:44.358Z,3.10
2017-08-16T13:37:12.775Z,2.90
2017-08-16T13:39:40.862Z,3.00
2017-08-16T13:42:08.941Z,3.23
2017-08-16T13:44:37.020Z,3.50
2017-08-16T13:47:05.095Z,3.20
2017-08-16T13:49:33.160Z,3.40
2017-08-16T13:52:01.246Z,3.10
2017-08-16T13:54:29.307Z,3.70
2017-08-16T13:56:57.387Z,2.90
2017-08-16T13:59:25.452Z,2.87
2017-08-16T14:01:53.575Z,2.87
2017-08-16T14:04:22.417Z,3.10
2017-08-16T14:06:51.263Z,2.90
2017-08-16T14:09:19.332Z,3.10
2017-08-16T14:11:47.402Z,3.17
2017-08-16T14:14:16.245Z,3.17
2017-08-16T14:16:44.312Z,2.63
2017-08-16T14:19:12.396Z,3.30
2017-08-16T14:21:40.458Z,3.47
2017-08-16T14:24:08.542Z,2.90
2017-08-16T14:26:36.619Z,2.97
2017-08-16T14:29:04.690Z,3.47
2017-08-16T14:31:32.763Z,2.77
2017-08-16T14:34:00.835Z,3.20
2017-08-16T14:36:28.911Z,3.20
2017-08-16T14:38:56.983Z,3.53
2017-08-16T14:41:25.056Z,3.20
2017-08-16T14:43:53.139Z,3.00
2017-08-16T14:46:21.214Z,3.20
2017-08-16T14:48:49.291Z,3.03
2017-08-16T14:51:17.363Z,2.70
2017-08-16T14:53:45.430Z,2.87
2017-08-16T14:56:13.520Z,3.37
2017-08-16T14:58:41.583Z,2.97
2017-08-16T15:01:09.658Z,2.70
2017-08-16T15:03:37.719Z,3.33
2017-08-16T15:06:05.790Z,3.87
2017-08-16T15:08:33.863Z,2.77
2017-08-16T15:11:01.948Z,2.93
2017-08-16T15:13:30.800Z,3.13
2017-08-16T15:15:59.650Z,3.07
2017-08-16T15:18:27.714Z,3.07
2017-08-16T15:20:56.548Z,3.60
2017-08-16T15:23:24.643Z,3.53
2017-08-16T15:25:52.767Z,3.27
2017-08-16T15:28:20.846Z,3.30
2017-08-16T15:30:48.936Z,3.47
2017-08-16T15:33:17.019Z,2.77
2017-08-16T15:35:45.162Z,3.07
2017-08-16T15:38:13.255Z,3.50
2017-08-16T15:40:41.345Z,3.60
2017-08-16T15:43:09.431Z,3.33
2017-08-16T15:45:37.513Z,3.63
2017-08-16T15:48:05.583Z,3.13
2017-08-16T15:50:33.655Z,3.17
2017-08-16T15:53:01.746Z,3.77
2017-08-16T15:55:30.605Z,3.53
2017-08-16T15:57:58.684Z,2.97
2017-08-16T16:00:26.776Z,4.30
2017-08-16T16:02:55.631Z,3.30
2017-08-16T16:05:23.713Z,3.70
2017-08-16T16:07:51.792Z,3.40
2017-08-16T16:10:19.885Z,3.13
2017-08-16T16:12:48.738Z,4.10
2017-08-16T16:15:16.847Z,3.27
2017-08-16T16:17:44.926Z,3.40
2017-08-16T16:20:13.016Z,3.10
2017-08-16T16:22:41.081Z,3.33
2017-08-16T16:25:09.166Z,3.00
2017-08-16T16:27:37.240Z,3.20
2017-08-16T16:30:05.313Z,3.00
2017-08-16T16:32:33.412Z,3.70
2017-08-16T16:35:01.506Z,3.27
2017-08-16T16:37:29.590Z,2.93
2017-08-16T16:39:57.676Z,3.53
2017-08-16T16:42:26.539Z,3.10
2017-08-16T16:44:54.759Z,3.13
2017-08-16T16:47:22.870Z,3.47
2017-08-16T16:49:50.940Z,3.77
2017-08-16T16:52:19.078Z,3.30
2017-08-16T16:54:47.151Z,3.10
2017-08-16T16:57:15.228Z,3.00
2017-08-16T16:59:43.298Z,3.50
2017-08-16T17:02:11.368Z,2.83
2017-08-16T17:04:39.440Z,3.47
2017-08-16T17:07:07.504Z,4.80
2017-08-16T17:09:36.355Z,3.27
2017-08-16T17:12:04.424Z,3.40
2017-08-16T17:14:32.505Z,3.37
2017-08-16T17:17:00.566Z,3.80
2017-08-16T17:19:28.647Z,5.50
2017-08-16T17:21:56.752Z,3.57
2017-08-16T17:24:25.604Z,3.40
2017-08-16T17:26:53.672Z,3.10
2017-08-16T17:29:21.777Z,3.10
2017-08-16T17:31:49.843Z,3.40
2017-08-16T17:34:17.927Z,3.80
2017-08-16T17:36:46.768Z,3.20
2017-08-16T17:39:14.840Z,3.20
2017-08-16T17:41:42.920Z,3.50
2017-08-16T17:44:11.011Z,3.47
2017-08-16T17:46:39.084Z,3.73
2017-08-16T17:49:07.157Z,3.23
2017-08-16T17:51:35.239Z,3.73
2017-08-16T17:54:03.308Z,3.70
2017-08-16T17:56:31.379Z,3.90
2017-08-16T17:58:59.451Z,3.20
2017-08-16T18:01:27.529Z,4.77
2017-08-16T18:03:55.603Z,3.97
2017-08-16T18:06:23.697Z,3.67
2017-08-16T18:08:51.775Z,5.60
2017-08-16T18:11:19.851Z,3.90
2017-08-16T18:13:47.925Z,6.63
2017-08-16T18:16:16.037Z,4.40
2017-08-16T18:18:44.140Z,4.70
2017-08-16T18:21:13.444Z,4.23
2017-08-16T18:23:41.577Z,8.27
2017-08-16T18:26:09.668Z,6.17
2017-08-16T18:28:37.759Z,4.80
2017-08-16T18:31:05.823Z,5.40
2017-08-16T18:33:33.895Z,5.03
2017-08-16T18:36:01.971Z,6.00
2017-08-16T18:38:30.164Z,6.17
2017-08-16T18:40:58.244Z,6.37
2017-08-16T18:43:26.320Z,5.30
2017-08-16T18:45:55.167Z,5.70
2017-08-16T18:48:23.238Z,5.63
2017-08-16T18:50:51.308Z,6.13
2017-08-16T18:53:19.370Z,6.17
2017-08-16T18:55:48.415Z,5.93
2017-08-16T18:58:16.483Z,6.27
2017-08-16T19:00:45.327Z,6.07
2017-08-16T19:03:13.404Z,6.80
2017-08-16T19:05:41.480Z,6.43
2017-08-16T19:08:09.551Z,6.30
2017-08-16T19:10:37.624Z,6.90
2017-08-16T19:13:05.699Z,6.40
2017-08-16T19:15:33.803Z,5.13
2017-08-16T19:18:02.679Z,7.10
2017-08-16T19:20:30.764Z,6.80
2017-08-16T19:22:58.836Z,5.70
2017-08-16T19:25:26.914Z,7.10
2017-08-16T19:27:54.981Z,6.47
2017-08-16T19:30:23.921Z,5.43
2017-08-16T19:32:52.009Z,6.97
2017-08-16T19:35:20.098Z,6.03
2017-08-16T19:37:48.184Z,5.57
2017-08-16T19:40:16.261Z,5.47
2017-08-16T19:42:44.337Z,6.20
2017-08-16T19:45:13.175Z,6.13
2017-08-16T19:47:41.256Z,6.90
2017-08-16T19:50:09.327Z,5.50
2017-08-16T19:52:37.412Z,7.37
2017-08-16T19:55:05.494Z,6.47
2017-08-16T19:57:33.571Z,6.00
2017-08-16T20:00:01.643Z,7.50
2017-08-16T20:02:29.715Z,6.87
2017-08-16T20:04:57.793Z,7.27
2017-08-16T20:07:25.912Z,5.90
2017-08-16T20:09:54.347Z,7.30
2017-08-16T20:12:22.496Z,7.30
2017-08-16T20:14:50.787Z,7.00
2017-08-16T20:17:18.936Z,5.87
2017-08-16T20:19:47.031Z,6.10
2017-08-16T20:22:15.309Z,6.33
2017-08-16T20:24:43.503Z,6.50
2017-08-16T20:27:12.015Z,6.47
2017-08-16T20:29:40.288Z,6.20
2017-08-16T20:32:08.577Z,6.13
2017-08-16T20:34:37.935Z,6.23
2017-08-16T20:37:06.123Z,6.27
2017-08-16T20:39:34.959Z,6.57
2017-08-16T20:42:03.191Z,11.23
2017-08-16T20:44:32.208Z,9.23
2017-08-16T20:47:01.334Z,6.50
2017-08-16T20:49:29.536Z,6.20
2017-08-16T20:51:57.623Z,7.50
2017-08-16T20:54:25.745Z,8.53
2017-08-16T20:56:53.822Z,10.17
2017-08-16T20:59:21.935Z,9.10
2017-08-16T21:01:50.032Z,8.03
2017-08-16T21:04:18.883Z,10.37
2017-08-16T21:06:46.967Z,11.53
2017-08-16T21:09:15.043Z,6.60
2017-08-16T21:11:43.115Z,9.63
2017-08-16T21:14:11.244Z,9.20
2017-08-16T21:16:39.330Z,11.73
2017-08-16T21:19:07.436Z,8.80
2017-08-16T21:21:35.531Z,8.33
2017-08-16T21:24:04.636Z,9.13
2017-08-16T21:26:32.764Z,7.93
2017-08-16T21:29:00.905Z,7.07
2017-08-16T21:31:28.990Z,7.70
2017-08-16T21:33:57.056Z,7.63
2017-08-16T21:36:25.128Z,7.70
2017-08-16T21:38:53.195Z,6.40
2017-08-16T21:41:21.250Z,6.63
2017-08-16T21:43:49.323Z,6.80
2017-08-16T21:46:17.391Z,6.77
2017-08-16T21:48:45.463Z,6.67
2017-08-16T21:51:13.523Z,6.13
2017-08-16T21:53:41.600Z,7.57
2017-08-16T21:56:09.739Z,7.50
2017-08-16T21:58:37.819Z,6.70
2017-08-16T22:01:05.899Z,7.47
2017-08-16T22:03:34.735Z,6.90
2017-08-16T22:06:02.806Z,7.70
2017-08-16T22:08:30.907Z,7.83
2017-08-16T22:10:58.987Z,8.30
2017-08-16T22:13:27.053Z,7.93
2017-08-16T22:15:55.124Z,7.13
2017-08-16T22:18:23.205Z,8.13
2017-08-16T22:20:51.264Z,7.50
2017-08-16T22:23:19.363Z,8.30
2017-08-16T22:25:47.440Z,7.97
2017-08-16T22:28:15.507Z,8.37
2017-08-16T22:30:43.591Z,8.43
2017-08-16T22:33:11.654Z,8.77
2017-08-16T22:35:39.719Z,8.77
2017-08-16T22:38:07.787Z,8.73
2017-08-16T22:40:35.870Z,8.90
2017-08-16T22:43:03.934Z,7.80
2017-08-16T22:45:32.011Z,8.20
2017-08-16T22:48:00.082Z,7.97
2017-08-16T22:50:28.180Z,9.10
2017-08-16T22:52:56.323Z,8.63
2017-08-16T22:55:24.416Z,8.13
2017-08-16T22:57:53.256Z,8.83
2017-08-16T23:00:21.318Z,8.07
2017-08-16T23:02:49.390Z,8.60
2017-08-16T23:20:07.838Z,7.53
2017-08-16T23:22:35.916Z,7.90
2017-08-16T23:25:03.993Z,8.57
2017-08-16T23:27:32.073Z,8.07
2017-08-16T23:30:00.158Z,8.60
2017-08-16T23:32:28.244Z,8.60
2017-08-16T23:34:56.316Z,7.80
2017-08-16T23:37:24.387Z,8.30
2017-08-16T23:39:52.467Z,9.10
2017-08-16T23:42:20.580Z,8.20
2017-08-16T23:44:48.668Z,8.70
2017-08-16T23:47:16.739Z,8.60
2017-08-16T23:49:44.816Z,8.07
2017-08-16T23:52:12.884Z,8.67
2017-08-16T23:54:40.974Z,8.33
2017-08-16T23:57:09.041Z,8.63
2017-08-16T23:59:37.116Z,8.30
